createdAt,value
2019-04-14T00:00:01.138Z,1.48
2019-04-14T00:05:08.253Z,1.43
2019-04-14T00:10:12.105Z,1.42
2019-04-14T00:15:25.906Z,1.26
2019-04-14T00:20:18.597Z,1.22
2019-04-14T00:25:21.664Z,1.08
2019-04-14T00:30:25.083Z,0.94
2019-04-14T00:35:47.230Z,0.93
2019-04-14T00:41:10.100Z,0.87
2019-04-14T00:46:19.073Z,0.90
2019-04-14T00:51:22.217Z,0.93
2019-04-14T00:56:24.216Z,0.76
2019-04-14T01:01:26.531Z,0.75
2019-04-14T01:06:29.413Z,0.75
2019-04-14T01:11:31.465Z,0.65
2019-04-14T01:16:34.096Z,0.63
2019-04-14T01:21:37.094Z,0.55
2019-04-14T01:26:39.995Z,0.46
2019-04-14T01:31:42.523Z,0.45
2019-04-14T01:36:45.331Z,0.31
2019-04-14T01:41:47.861Z,0.22
2019-04-14T01:46:52.076Z,0.04
2019-04-14T01:52:23.191Z,-0.01
2019-04-14T01:57:56.934Z,0.07
2019-04-14T02:02:59.733Z,0.04
2019-04-14T02:08:02.342Z,0.17
2019-04-14T02:13:04.960Z,0.33
2019-04-14T02:18:08.064Z,0.20
2019-04-14T02:23:12.439Z,0.14
2019-04-14T02:28:15.527Z,0.17
2019-04-14T02:33:44.651Z,0.11
2019-04-14T02:43:58.120Z,-0.04
2019-04-14T02:54:04.898Z,-0.13
2019-04-14T03:04:09.318Z,-0.07
2019-04-14T03:14:15.688Z,0.28
2019-04-14T03:19:25.302Z,0.33
2019-04-14T03:24:39.042Z,0.17
2019-04-14T03:30:16.962Z,0.23
2019-04-14T03:35:23.127Z,0.21
2019-04-14T03:40:10.002Z,0.16
2019-04-14T03:45:23.800Z,0.27
2019-04-14T03:50:13.719Z,0.15
2019-04-14T03:55:13.888Z,0.12
2019-04-14T03:59:59.185Z,0.39
2019-04-14T04:05:02.246Z,0.27
2019-04-14T04:10:11.346Z,0.34
2019-04-14T04:15:14.900Z,0.16
2019-04-14T04:20:52.406Z,0.09
2019-04-14T04:26:12.914Z,0.30
2019-04-14T04:31:37.442Z,0.32
2019-04-14T04:36:46.570Z,0.28
2019-04-14T04:41:49.448Z,0.22
2019-04-14T04:46:52.689Z,0.40
2019-04-14T04:51:55.134Z,0.35
2019-04-14T04:56:58.039Z,0.33
2019-04-14T05:02:00.459Z,0.26
2019-04-14T05:07:03.599Z,0.21
2019-04-14T05:12:13.599Z,0.25
2019-04-14T05:17:16.971Z,0.35
2019-04-14T05:22:20.815Z,0.31
2019-04-14T05:27:25.349Z,0.41
2019-04-14T05:32:28.378Z,0.49
2019-04-14T05:37:31.558Z,0.52
2019-04-14T05:42:34.082Z,0.49
2019-04-14T05:47:37.118Z,0.55
2019-04-14T05:52:40.357Z,0.61
2019-04-14T05:57:43.708Z,0.57
2019-04-14T06:02:46.307Z,0.67
2019-04-14T06:07:48.310Z,0.84
2019-04-14T06:12:50.232Z,0.87
2019-04-14T06:17:53.531Z,0.95
2019-04-14T06:22:55.437Z,1.00
2019-04-14T06:27:58.526Z,0.98
2019-04-14T06:33:07.050Z,1.09
2019-04-14T06:38:21.259Z,1.16
2019-04-14T06:43:23.160Z,1.30
2019-04-14T06:48:25.254Z,1.36
2019-04-14T06:53:27.188Z,1.44
2019-04-14T06:58:29.101Z,1.52
2019-04-14T07:03:31.022Z,1.63
2019-04-14T07:08:32.929Z,1.66
2019-04-14T07:13:35.159Z,1.73
2019-04-14T07:18:37.060Z,1.84
2019-04-14T07:23:39.070Z,1.91
2019-04-14T07:28:40.965Z,1.94
2019-04-14T07:34:01.239Z,2.05
2019-04-14T07:39:23.489Z,2.09
2019-04-14T07:44:45.176Z,2.18
2019-04-14T07:49:57.136Z,2.41
2019-04-14T07:55:18.720Z,2.42
2019-04-14T08:00:52.394Z,2.51
2019-04-14T08:05:54.414Z,2.78
2019-04-14T08:10:56.553Z,2.86
2019-04-14T08:15:58.447Z,2.98
2019-04-14T08:21:00.359Z,3.02
2019-04-14T08:26:02.369Z,2.95
2019-04-14T08:31:04.245Z,3.02
2019-04-14T08:36:06.173Z,3.29
2019-04-14T08:41:08.200Z,3.53
2019-04-14T08:46:19.291Z,3.62
2019-04-14T08:51:28.375Z,3.82
2019-04-14T08:56:53.471Z,3.83
2019-04-14T09:02:13.818Z,3.83
2019-04-14T09:07:25.878Z,3.78
2019-04-14T09:12:30.848Z,3.88
2019-04-14T09:17:32.760Z,3.94
2019-04-14T09:22:34.759Z,3.94
2019-04-14T09:27:36.686Z,3.96
2019-04-14T09:32:38.676Z,4.02
2019-04-14T09:37:40.589Z,4.05
2019-04-14T09:42:42.535Z,4.12
2019-04-14T09:47:44.647Z,3.98
2019-04-14T09:52:46.553Z,4.00
2019-04-14T09:57:48.471Z,3.96
2019-04-14T10:02:50.359Z,3.92
2019-04-14T10:07:52.284Z,3.82
2019-04-14T10:12:54.574Z,3.83
2019-04-14T10:17:56.503Z,3.83
2019-04-14T10:22:58.411Z,3.81
2019-04-14T10:28:00.421Z,3.85
2019-04-14T10:33:02.414Z,3.78
2019-04-14T10:38:04.544Z,3.79
2019-04-14T10:43:06.453Z,3.79
2019-04-14T10:48:08.500Z,3.96
2019-04-14T10:53:10.374Z,3.98
2019-04-14T10:58:12.296Z,4.07
2019-04-14T11:03:14.333Z,3.91
2019-04-14T11:08:17.893Z,3.91
2019-04-14T11:13:19.790Z,4.04
2019-04-14T11:18:21.720Z,4.25
2019-04-14T11:23:23.608Z,3.95
2019-04-14T11:28:26.547Z,3.93
2019-04-14T11:33:48.126Z,3.88
2019-04-14T11:38:55.049Z,3.88
2019-04-14T11:43:57.418Z,3.90
2019-04-14T11:48:59.602Z,3.95
2019-04-14T11:54:01.618Z,3.89
2019-04-14T11:59:03.731Z,4.06
2019-04-14T12:04:24.871Z,4.08
2019-04-14T12:09:29.732Z,4.02
2019-04-14T12:14:31.798Z,3.98
2019-04-14T12:19:33.796Z,3.98
2019-04-14T12:24:35.807Z,3.99
2019-04-14T12:29:38.947Z,4.00
2019-04-14T12:34:41.170Z,4.26
2019-04-14T12:39:43.128Z,4.28
2019-04-14T12:44:51.965Z,4.38
2019-04-14T12:49:54.863Z,4.32
2019-04-14T12:54:57.247Z,4.51
2019-04-14T12:59:59.255Z,4.62
2019-04-14T13:05:01.352Z,4.59
2019-04-14T13:10:04.794Z,4.45
2019-04-14T13:15:06.989Z,4.56
2019-04-14T13:20:09.707Z,4.44
2019-04-14T13:25:12.879Z,4.40
2019-04-14T13:30:17.428Z,4.42
2019-04-14T13:35:19.361Z,4.47
2019-04-14T13:40:22.463Z,4.50
2019-04-14T13:45:24.445Z,4.63
2019-04-14T13:50:27.410Z,4.61
2019-04-14T13:55:29.395Z,4.68
2019-04-14T14:00:31.420Z,4.77
2019-04-14T14:05:33.406Z,4.76
2019-04-14T14:10:35.487Z,4.88
2019-04-14T14:16:06.227Z,5.00
2019-04-14T14:21:20.976Z,4.97
2019-04-14T14:26:24.145Z,4.91
2019-04-14T14:31:26.031Z,4.73
2019-04-14T14:36:28.529Z,4.80
2019-04-14T14:41:30.455Z,4.76
2019-04-14T14:46:55.973Z,4.61
2019-04-14T14:52:04.980Z,4.73
2019-04-14T14:57:06.922Z,4.78
2019-04-14T15:02:08.903Z,4.92
2019-04-14T15:07:10.947Z,4.90
2019-04-14T15:12:13.889Z,5.01
2019-04-14T15:17:15.870Z,5.01
2019-04-14T15:22:17.792Z,5.04
2019-04-14T15:27:19.867Z,5.05
2019-04-14T15:32:21.852Z,5.26
2019-04-14T15:37:23.732Z,5.18
2019-04-14T15:42:25.665Z,5.20
2019-04-14T15:47:27.549Z,5.16
2019-04-14T15:52:29.475Z,5.16
2019-04-14T15:57:45.729Z,5.28
2019-04-14T16:03:07.285Z,5.23
2019-04-14T16:08:20.207Z,5.37
2019-04-14T16:13:41.782Z,5.47
2019-04-14T16:18:48.745Z,5.51
2019-04-14T16:23:51.148Z,5.65
2019-04-14T16:29:02.722Z,5.64
2019-04-14T16:34:11.675Z,5.76
2019-04-14T16:39:13.856Z,5.79
2019-04-14T16:44:16.131Z,5.81
2019-04-14T16:49:18.059Z,5.78
2019-04-14T16:54:26.756Z,5.81
2019-04-14T16:59:28.743Z,5.83
2019-04-14T17:04:31.959Z,5.85
2019-04-14T17:09:33.857Z,5.97
2019-04-14T17:14:40.940Z,6.02
2019-04-14T17:19:53.415Z,5.95
2019-04-14T17:25:03.610Z,6.05
2019-04-14T17:30:21.917Z,5.98
2019-04-14T17:35:30.220Z,5.94
2019-04-14T17:40:51.896Z,5.93
2019-04-14T17:46:19.172Z,6.01
2019-04-14T17:51:43.727Z,6.03
2019-04-14T17:57:00.655Z,6.01
2019-04-14T18:02:06.203Z,5.94
2019-04-14T18:07:30.785Z,6.00
2019-04-14T18:12:36.612Z,5.91
2019-04-14T18:18:00.257Z,5.93
2019-04-14T18:23:02.207Z,5.81
2019-04-14T18:28:17.014Z,5.71
2019-04-14T18:33:29.955Z,5.50
2019-04-14T18:38:50.095Z,5.51
2019-04-14T18:44:26.556Z,5.40
2019-04-14T18:49:48.167Z,5.29
2019-04-14T18:55:02.492Z,5.14
2019-04-14T19:00:23.489Z,5.09
2019-04-14T19:05:25.395Z,5.11
2019-04-14T19:10:27.573Z,4.96
2019-04-14T19:15:34.220Z,4.99
2019-04-14T19:20:37.621Z,4.84
2019-04-14T19:25:39.537Z,4.94
2019-04-14T19:30:41.428Z,4.94
2019-04-14T19:35:43.355Z,5.04
2019-04-14T19:40:45.288Z,5.04
2019-04-14T19:45:47.316Z,5.39
2019-04-14T19:50:49.262Z,5.37
2019-04-14T19:55:51.210Z,5.45
2019-04-14T20:00:53.202Z,5.58
2019-04-14T20:05:55.342Z,5.52
2019-04-14T20:10:58.396Z,5.48
2019-04-14T20:16:31.867Z,5.52
2019-04-14T20:21:53.599Z,5.41
2019-04-14T20:26:59.477Z,5.51
2019-04-14T20:32:04.230Z,5.45
2019-04-14T20:37:06.338Z,5.50
2019-04-14T20:42:08.342Z,5.36
2019-04-14T20:47:10.467Z,5.37
2019-04-14T20:52:12.961Z,5.31
2019-04-14T20:57:14.948Z,5.23
2019-04-14T21:02:35.448Z,5.37
2019-04-14T21:07:51.853Z,5.28
2019-04-14T21:13:01.310Z,5.17
2019-04-14T21:18:13.037Z,5.13
2019-04-14T21:23:26.142Z,5.15
2019-04-14T21:28:46.788Z,5.13
2019-04-14T21:33:58.272Z,5.21
2019-04-14T21:39:35.046Z,5.28
2019-04-14T21:44:37.012Z,5.22
2019-04-14T21:49:38.909Z,5.17
2019-04-14T21:54:42.505Z,5.24
2019-04-14T22:00:04.081Z,5.15
2019-04-14T22:05:23.710Z,5.16
2019-04-14T22:10:47.466Z,5.19
2019-04-14T22:15:49.661Z,5.24
2019-04-14T22:20:51.609Z,5.24
2019-04-14T22:25:53.672Z,5.14
2019-04-14T22:30:55.683Z,5.28
2019-04-14T22:35:57.746Z,5.35
2019-04-14T22:40:59.642Z,5.34
2019-04-14T22:46:01.977Z,5.20
2019-04-14T22:51:03.894Z,5.21
2019-04-14T22:56:05.814Z,5.09
2019-04-14T23:01:23.863Z,5.20
2019-04-14T23:06:44.007Z,5.16
2019-04-14T23:12:00.588Z,5.12
2019-04-14T23:17:40.551Z,5.02
2019-04-14T23:23:01.005Z,5.05
2019-04-14T23:28:04.424Z,4.95
2019-04-14T23:33:06.465Z,4.87
2019-04-14T23:38:08.533Z,4.75
2019-04-14T23:43:10.477Z,4.84
2019-04-14T23:48:12.479Z,4.73
2019-04-14T23:53:14.635Z,4.89
2019-04-14T23:58:16.556Z,4.66
